Narringa — AJH633N — position and weather

sailwx.info

Track history (hours):
 
Tides and Currents Weather Stations Pressure Air Temp Water Temp Dewpoint Dewpoint Depression Visibility Wind Speed Wind Dir Waves Ship Positions

Narringa

Last reported at 2018-Jun-12 04:27 UTC. Time now 2018-Jun-21 23:59 UTC.
Position S 32°40' E 152°10'.
Warning: this ship's position is 9 days out of date.

Length 8 m.

Type: Pleasure craft. MMSI: 503058250.

Date/timePositionNaut miles runAvg speedWind from/ knotsBaromVisibWave heightAir tempDewpointWater temp
2018-Jun-12 04:27S 32°40' E 152°10'0 0.0
2018-Jun-12 04:00S 32°40' E 152°10'2 4.8
2018-Jun-12 03:30S 32°40' E 152°07'4 4.7
2018-Jun-12 02:46S 32°42' E 152°04'0 0.0
2018-Jun-12 02:28S 32°42' E 152°04'0 0.0
2018-Jun-12 01:55S 32°42' E 152°04'0 0.0
2018-Jun-12 01:25S 32°42' E 152°04'0 0.0
2018-Jun-12 00:58S 32°42' E 152°04'0 0.0
2018-Jun-12 00:22S 32°42' E 152°04'0 0.2
2018-Jun-11 23:58S 32°42' E 152°04'3 7.4
2018-Jun-11 23:30S 32°41' E 152°07'2 4.7
2018-Jun-11 22:59S 32°40' E 152°10'  
2018-Jun-08 05:12S 32°40' E 152°10'0 0.0
2018-Jun-08 05:00S 32°40' E 152°10'  
Track history (hours):
 
Tides and Currents Weather Stations Pressure Air Temp Water Temp Dewpoint Dewpoint Depression Visibility Wind Speed Wind Dir Waves Ship Positions

Narringa

Last reported at 2018-Jun-12 04:27 UTC. Time now 2018-Jun-21 23:59 UTC.
Position S 32°40' E 152°10'.
Warning: this ship's position is 9 days out of date.

Length 8 m.

Type: Pleasure craft. MMSI: 503058250.

Date/timePositionNaut miles runAvg speedWind from/ knotsBaromVisibWave heightAir tempDewpointWater temp
2018-Jun-12 04:27S 32°40' E 152°10'0 0.0
2018-Jun-12 04:00S 32°40' E 152°10'2 4.8
2018-Jun-12 03:30S 32°40' E 152°07'4 4.7
2018-Jun-12 02:46S 32°42' E 152°04'0 0.0
2018-Jun-12 02:28S 32°42' E 152°04'0 0.0
2018-Jun-12 01:55S 32°42' E 152°04'0 0.0
2018-Jun-12 01:25S 32°42' E 152°04'0 0.0
2018-Jun-12 00:58S 32°42' E 152°04'0 0.0
2018-Jun-12 00:22S 32°42' E 152°04'0 0.2
2018-Jun-11 23:58S 32°42' E 152°04'3 7.4
2018-Jun-11 23:30S 32°41' E 152°07'2 4.7
2018-Jun-11 22:59S 32°40' E 152°10'  
2018-Jun-08 05:12S 32°40' E 152°10'0 0.0
2018-Jun-08 05:00S 32°40' E 152°10'  

Dump ship's entire track history